Latest Coastal Weather Observations for Cape Bruny AWS

IDT60701

Issued at 11:52 pm EST Wednesday 26 June 2019 (issued every 10 minutes, with the page automatically refreshed every 10 minutes)

About coastal observations | Map of coastal stations | Coastal observations for TAS | Marine services | Other Formats
Station Details ID: 094198 Name: CAPE BRUNY (CAPE BRUNY) Lat: -43.49 Lon: 147.14 Height: 59.7 m
Data from the previous 72 hours. | See also: Recent months at Cape Bruny AWS
Date/Time
EST
Wind Sea
Height
m
Swell Vis
km
Cloud Weather Temp
°C
Press
hPa
Rain since
9am
mm
Dir  Spd
kts
Gust
kts
Height
m
Period
s
Dir
26/11:30pm N 11 13 - - - - - - - 7.9 1030.3 0.0
26/11:00pm N 12 14 - - - - - - - 8.1 1030.5 0.0
26/10:30pm N 13 14 - - - - - - - 8.3 1030.6 0.0
26/10:00pm N 11 14 - - - - - - - 8.8 1030.8 0.0
26/09:30pm N 11 13 - - - - - - - 9.2 1030.7 0.0
26/09:00pm N 12 13 - - - - - - - 9.4 1030.8 0.0
26/08:30pm N 10 12 - - - - - - - 9.7 1030.9 0.0
26/08:00pm N 9 11 - - - - - - - 10.1 1031.2 0.0
26/07:30pm N 10 12 - - - - - - - 10.2 1031.0 0.0
26/07:00pm N 9 11 - - - - - - - 9.8 1031.0 0.0
26/06:30pm N 9 9 - - - - - - - 10.3 1031.1 0.0
26/06:00pm N 9 11 - - - - - - - 10.4 1031.1 0.0
26/05:30pm N 8 9 - - - - - - - 9.9 1031.0 0.0
26/05:00pm N 7 8 - - - - - - - 9.9 1030.9 0.0
26/04:30pm N 9 11 - - - - - - - 10.7 1030.9 0.0
26/04:00pm N 8 8 - - - - - - - 11.2 1031.0 0.0
26/03:30pm N 6 8 - - - - - - - 13.0 1031.1 0.0
26/03:00pm NNE 6 8 - - - - - - - 13.4 1031.0 0.0
26/02:30pm NNE 7 9 - - - - - - - 13.5 1031.1 0.0
26/02:00pm NNE 7 10 - - - - - - - 14.1 1031.2 0.0
26/01:30pm N 7 10 - - - - - - - 14.2 1031.5 0.0
26/01:00pm N 8 10 - - - - - - - 13.7 1031.8 0.0
26/12:30pm N 9 13 - - - - - - - 13.9 1032.2 0.0
26/12:00pm N 9 12 - - - - - - - 13.1 1032.4 0.0
26/11:30am NNE 9 11 - - - - - - - 12.8 1032.8 0.0
26/11:00am N 9 13 - - - - - - - 12.0 1033.2 0.0
26/10:30am NNE 10 13 - - - - - - - 11.2 1033.2 0.0
26/10:00am NNE 10 15 - - - - - - - 10.9 1033.4 0.0
26/09:30am N 9 13 - - - - - - - 10.5 1033.5 0.0
26/09:00am NNE 8 12 - - - - - - - 9.8 1033.2 0.0
26/08:30am N 9 13 - - - - - - - 9.2 1033.2 0.0
26/08:00am N 11 14 - - - - - - - 8.6 1033.1 0.0
26/07:30am N 10 13 - - - - - - - 8.5 1033.0 0.0
26/07:00am N 10 13 - - - - - - - 8.5 1032.7 0.0
26/06:30am N 11 13 - - - - - - - 8.3 1032.4 0.0
26/06:00am N 10 13 - - - - - - - 8.7 1032.2 0.0
26/05:30am N 11 13 - - - - - - - 8.7 1031.9 0.0
26/05:00am N 10 13 - - - - - - - 8.4 1031.8 0.0
26/04:30am N 10 12 - - - - - - - 9.0 1031.7 0.0
26/04:00am N 10 12 - - - - - - - 8.9 1031.6 0.0
26/03:30am NW 9 14 - - - - - - - 10.5 1031.5 0.0
26/03:00am NW 10 17 - - - - - - - 10.2 1031.6 0.0
26/02:30am N 9 12 - - - - - - - 9.1 1031.6 0.0
26/02:00am NNW 11 19 - - - - - - - 10.3 1031.3 0.0
26/01:30am N 10 12 - - - - - - - 9.2 1031.3 0.0
26/01:00am N 10 14 - - - - - - - 9.2 1031.4 0.0
26/12:30am N 7 10 - - - - - - - 8.7 1031.5 0.0
26/12:00am NNW 10 14 - - - - - - - 9.9 1031.6 0.0
 
Date/Time
EST
Wind Sea
Height
m
Swell Vis
km
Cloud Weather Temp
°C
Press
hPa
Rain since
9am
mm
Dir  Spd
kts
Gust
kts
Height
m
Period
s
Dir
25/11:30pm NNW 14 18 - - - - - - - 11.1 1031.7 0.0
25/11:00pm N 10 12 - - - - - - - 9.5 1031.8 0.0
25/10:30pm N 9 11 - - - - - - - 9.7 1031.7 0.0
25/10:00pm N 9 13 - - - - - - - 10.9 1031.5 0.0
25/09:30pm N 9 12 - - - - - - - 10.8 1031.4 0.0
25/09:00pm N 7 9 - - - - - - - 10.0 1031.2 0.0
25/08:30pm NNE 8 10 - - - - - - - 9.7 1031.2 0.0
25/08:00pm N 9 11 - - - - - - - 10.0 1031.2 0.0
25/07:30pm N 9 10 - - - - - - - 10.1 1031.1 0.0
25/07:00pm N 8 10 - - - - - - - 10.4 1031.0 0.0
25/06:30pm N 9 11 - - - - - - - 10.4 1030.9 0.0
25/06:00pm N 8 10 - - - - - - - 10.4 1030.7 0.0
25/05:30pm N 7 9 - - - - - - - 10.3 1030.6 0.0
25/05:00pm N 7 9 - - - - - - - 10.1 1030.5 0.0
25/04:30pm N 7 9 - - - - - - - 10.3 1030.5 0.0
25/04:00pm NNE 7 9 - - - - - - - 10.1 1030.3 0.0
25/03:30pm NE 6 8 - - - - - - - 10.0 1030.3 0.0
25/03:00pm N 8 9 - - - - - - - 10.7 1030.1 0.0
25/02:30pm NNW 11 14 - - - - - - - 11.3 1030.0 0.0
25/02:00pm N 10 13 - - - - - - - 10.8 1029.9 0.0
25/01:30pm N 10 14 - - - - - - - 10.4 1030.1 0.0
25/01:00pm N 10 12 - - - - - - - 10.2 1030.3 0.0
25/12:30pm N 11 14 - - - - - - - 10.0 1030.4 0.0
25/12:00pm N 12 14 - - - - - - - 9.5 1030.5 0.0
25/11:30am N 11 15 - - - - - - - 9.1 1030.9 0.0
25/11:00am NNE 7 11 - - - - - - - 9.5 1031.2 0.0
25/10:30am N 11 15 - - - - - - - 8.5 1031.4 0.0
25/10:00am NNE 9 12 - - - - - - - 8.2 1031.3 0.0
25/09:30am NNE 10 14 - - - - - - - 6.8 1031.2 0.0
25/09:00am N 12 15 - - - - - - - 5.9 1031.4 0.4
25/08:30am N 12 15 - - - - - - - 5.3 1031.3 0.4
25/08:00am N 15 18 - - - - - - - 4.5 1031.3 0.4
25/07:30am N 15 18 - - - - - - - 4.4 1031.1 0.4
25/07:00am N 16 19 - - - - - - - 4.4 1031.0 0.4
25/06:30am N 16 19 - - - - - - - 4.2 1030.9 0.4
25/06:00am N 16 19 - - - - - - Recent precip. 3.7 1030.8 0.4
25/05:30am N 16 19 - - - - - - - 4.1 1030.8 0.2
25/05:00am N 15 19 - - - - - - - 4.2 1030.9 0.2
25/04:30am N 15 19 - - - - - - - 4.2 1030.9 0.2
25/04:00am N 16 19 - - - - - - - 4.4 1030.9 0.2
25/03:30am N 15 18 - - - - - - - 4.6 1031.2 0.2
25/03:00am N 12 16 - - - - - - - 4.6 1031.4 0.2
25/02:30am N 13 15 - - - - - - - 4.3 1031.5 0.2
25/02:00am N 14 16 - - - - - - - 4.1 1031.4 0.2
25/01:30am N 14 17 - - - - - - - 4.3 1031.4 0.2
25/01:00am N 12 15 - - - - - - - 4.6 1031.6 0.2
25/12:30am N 12 14 - - - - - - - 4.8 1032.0 0.2
25/12:00am N 12 15 - - - - - - - 5.0 1032.0 0.2
 
Date/Time
EST
Wind Sea
Height
m
Swell Vis
km
Cloud Weather Temp
°C
Press
hPa
Rain since
9am
mm
Dir  Spd
kts
Gust
kts
Height
m
Period
s
Dir
24/11:30pm N 10 11 - - - - - - - 5.1 1032.3 0.2
24/11:00pm N 9 11 - - - - - - - 4.8 1032.5 0.2
24/10:30pm N 6 8 - - - - - - - 4.8 1032.2 0.0
24/10:00pm N 7 8 - - - - - - - 4.8 1032.3 0.0
24/09:30pm NNE 7 9 - - - - - - - 5.5 1032.4 0.0
24/09:00pm N 6 8 - - - - - - - 5.2 1032.4 0.0
24/08:30pm NNW 7 12 - - - - - - - 5.8 1032.2 0.0
24/08:00pm N 11 14 - - - - - - - 6.1 1031.9 0.0
24/07:30pm N 11 14 - - - - - - - 6.0 1032.2 0.0
24/07:00pm N 10 13 - - - - - - - 6.3 1032.5 0.0
24/06:30pm N 9 10 - - - - - - - 6.2 1032.6 0.0
24/06:00pm N 7 8 - - - - - - - 5.9 1032.7 0.0
24/05:30pm N 5 6 - - - - - - - 5.6 1032.5 0.0
24/05:00pm N 4 5 - - - - - - - 5.8 1032.3 0.0
24/04:30pm N 5 5 - - - - - - - 6.1 1032.2 0.0
24/04:00pm CALM 0 0 - - - - - - - 8.3 1032.0 0.0
24/03:30pm CALM 0 3 - - - - - - - 9.5 1031.9 0.0
24/03:00pm CALM 0 0 - - - - - - - 10.1 1031.9 0.0
24/02:30pm NE 2 3 - - - - - - - 9.8 1031.7 0.0
24/02:00pm NE 3 5 - - - - - - - 10.0 1031.6 0.0
24/01:30pm NNE 4 5 - - - - - - - 9.7 1031.7 0.0
24/01:00pm NNE 5 7 - - - - - - - 9.6 1031.8 0.0
24/12:30pm NE 7 10 - - - - - - - 8.9 1031.8 0.0
24/12:00pm NE 8 10 - - - - - - - 8.3 1032.2 0.0
24/11:30am NNE 8 10 - - - - - - - 8.0 1032.8 0.0
24/11:00am NE 7 9 - - - - - - - 7.5 1033.2 0.0
24/10:30am NNE 5 9 - - - - - - - 7.2 1033.5 0.0
24/10:00am N 7 11 - - - - - - - 6.3 1033.2 0.0
24/09:30am NNE 7 11 - - - - - - - 5.6 1033.0 0.0
24/09:00am NNE 8 11 - - - - - - - 5.1 1032.9 0.2
24/08:30am N 10 13 - - - - - - - 4.5 1032.8 0.2
24/08:00am N 9 13 - - - - - - - 3.9 1032.8 0.2
24/07:30am N 10 13 - - - - - - - 3.8 1032.6 0.2
24/07:00am NNE 8 10 - - - - - - - 3.5 1032.6 0.2
24/06:30am N 10 12 - - - - - - - 4.0 1032.7 0.2
24/06:00am N 9 11 - - - - - - - 4.1 1032.7 0.0
24/05:30am N 10 12 - - - - - - - 4.2 1032.6 0.0
24/05:00am N 11 13 - - - - - - - 4.3 1032.6 0.0
24/04:30am N 10 13 - - - - - - - 4.1 1032.4 0.0
24/04:00am N 10 12 - - - - - - - 4.0 1032.6 0.0
24/03:30am N 11 13 - - - - - - - 4.3 1032.7 0.0
24/03:00am N 10 13 - - - - - - - 4.3 1032.8 0.0
24/02:30am N 10 12 - - - - - - - 4.6 1033.0 0.0
24/02:00am N 11 12 - - - - - - - 4.7 1032.8 0.0
24/01:30am N 10 12 - - - - - - - 4.8 1032.7 0.0
24/01:00am N 10 12 - - - - - - - 4.8 1032.5 0.0
24/12:30am N 9 11 - - - - - - - 4.9 1032.8 0.0
24/12:00am N 9 11 - - - - - - - 5.3 1032.5 0.0

Other formats

Comma delimited format used in spreadsheet applications
http://www.bom.gov.au/fwo/IDT60701/IDT60701.95967.axf

JavaScript Object Notation format (JSON) in row-major order
http://www.bom.gov.au/fwo/IDT60701/IDT60701.95967.json

Data quality

Most of these data are generated automatically and are frequently updated. Quality checks on data are not normally performed. It is possible for incorrect values to appear. Refer to information at About Latest Weather Observations and please check the disclaimer before using these data.